ADDS METAR Data INFO
IDs: Format: Raw Decoded Include TAF

Data at: 0206 UTC 14 Dec 2017

KFRG 140153Z 28010KT 10SM CLR M03/M14 A2966 RMK AO2 SLP044 T10281139
KFRG 140053Z 27016G23KT 10SM CLR M03/M14 A2967 RMK AO2 SLP047 T10281139
KFRG 132353Z 26014KT 10SM CLR M02/M14 A2966 RMK AO2 SLP045 T10221139 11006 21022 51024
KFRG 132253Z 27014KT 10SM CLR M02/M13 A2964 RMK AO2 SLP038 T10221133
KFRG 132153Z 30011G18KT 10SM CLR M02/M16 A2961 RMK AO2 SLP029 T10171161
KFRG 132053Z 30016G21KT 10SM CLR M01/M17 A2959 RMK AO2 PK WND 32032/1958 SLP021 T10111167 53018
KFRG 131953Z 32015G26KT 10SM CLR M01/M17 A2957 RMK AO2 PK WND 28028/1942 SLP014 T10061167
KFRG 131853Z 31018G29KT 10SM CLR M01/M14 A2954 RMK AO2 PK WND 29030/1807 SLP003 T10111144
KFRG 131753Z 30017G25KT 10SM BKN049 M02/M14 A2954 RMK AO2 PK WND 29039/1656 SLP002 T10221139 11022 21067 55003
KFRG 131653Z 29022G33KT 10SM OVC048 M04/M14 A2952 RMK AO2 PK WND 30037/1639 SLP998 T10391139
KFRG 131553Z 30021G34KT 10SM BKN045 OVC055 M04/M14 A2954 RMK AO2 PK WND 28034/1456 SLP002 T10441144
KFRG 131453Z 29011G28KT 10SM SCT047 OVC055 M05/M16 A2954 RMK AO2 PK WND 29035/1425 SLP004 T10501156 51014
KFRG 131353Z 29015G30KT 10SM SCT041 M06/M14 A2953 RMK AO2 PK WND 29032/1323 SLP001 T10561144
KFRG 131253Z 29016G30KT 10SM FEW042 M06/M15 A2952 RMK AO2 PK WND 28033/1157 SLP996 T10611150
KFRG 131153Z 29015G24KT 10SM FEW046 M07/M15 A2950 RMK AO2 PK WND 32031/1054 SLP990 T10671150 11017 21067 53010
KFRG 131053Z AUTO 30015G28KT 10SM CLR M06/M16 A2948 RMK AO2 PK WND 29031/1004 SLP984 T10611161
KFRG 130953Z AUTO 30016G30KT 10SM CLR M06/M16 A2947 RMK AO2 PK WND 29031/0929 SLP980 T10611161
KFRG 130853Z AUTO 30014G28KT 10SM CLR M06/M16 A2947 RMK AO2 PK WND 30032/0820 SLP980 T10561161 50002
KFRG 130753Z AUTO 29015G27KT 10SM CLR M04/M15 A2948 RMK AO2 PK WND 29027/0747 SLP983 T10441150
KFRG 130653Z AUTO 31014G22KT 10SM CLR M03/M14 A2948 RMK AO2 PK WND 33026/0602 SLP982 T10331144
KFRG 130553Z AUTO 30013G23KT 10SM OVC049 M02/M12 A2946 RMK AO2 SLP977 60000 T10171122 10050 21017 53015
KFRG 130453Z AUTO 32010G23KT 10SM SCT045 OVC110 M01/M10 A2944 RMK AO2 SLP969 T10061100 401111006
KFRG 130353Z AUTO 31009G19KT 10SM BKN110 00/M07 A2944 RMK AO2 SLP970 T00001072
KFRG 130253Z 32012G22KT 10SM SCT100 01/M06 A2942 RMK AO2 PK WND 30029/0204 SLP962 60000 T00061061 55002
KFRG 130153Z 33014G25KT 10SM FEW032 BKN047 OVC100 02/M05 A2941 RMK AO2 PK WND 30036/0111 SNB16E27 SLP958 P0000 T00171050
KFRG 130128Z 30016G26KT 9SM BKN030 OVC040 02/M03 A2943 RMK AO2 PK WND 30036/0111 SNB16E27 P0000 T00221033
KFRG 130120Z 32018G36KT 8SM -SN BKN028 OVC040 03/M04 A2943 RMK AO2 PK WND 30036/0111 SNB16 P0000 T00281039
KFRG 130053Z 31007KT 10SM FEW025 BKN040 OVC047 05/M01 A2942 RMK AO2 SLP963 T00501006
KFRG 122353Z 31008KT 10SM FEW028 BKN050 OVC100 05/01 A2943 RMK AO2 SLP964 T00500006 10106 20050 53006
KFRG 122253Z 30010G20KT 10SM BKN035 OVC060 06/00 A2942 RMK AO2 SLP962 T00610000
KFRG 122153Z 30006KT 10SM BKN070 OVC100 06/01 A2941 RMK AO2 SLP958 T00610011
KFRG 122053Z 30010KT 10SM FEW025 BKN080 OVC100 07/02 A2941 RMK AO2 SLP958 T00720017 56012
KFRG 121953Z 30012G16KT 10SM FEW035 FEW090 08/02 A2941 RMK AO2 SLP959 T00830017
KFRG 121853Z 27013KT 10SM OVC048 09/03 A2942 RMK AO2 SLP963 T00940028
KFRG 121753Z 22012KT 10SM FEW025 BKN036 OVC046 11/06 A2944 RMK AO2 SLP970 60000 T01060061 10111 20072 58049
KFRG 121653Z 20014KT 10SM FEW030 FEW036 BKN065 11/06 A2949 RMK AO2 SLP986 T01110056
KFRG 121553Z 18014KT 10SM FEW030 BKN038 OVC065 10/05 A2955 RMK AO2 SLP005 T01000050
KFRG 121453Z 19012KT 10SM SCT023 BKN080 OVC090 10/06 A2959 RMK AO2 RAE00 SLP020 P0000 60000 T01000061 56025
KFRG 121450Z 19013KT 10SM SCT023 BKN080 OVC095 10/06 A2959 RMK AO2 RAE00 P0000
KFRG 121436Z 19011KT 10SM BKN023 BKN036 OVC049 10/06 A2961 RMK AO2 RAE00 P0000 T01000061
KFRG 121421Z 18013KT 10SM SCT023 BKN030 OVC047 09/06 A2961 RMK AO2 RAE00 P0000 T00940061